Time;durP1;ratioP1;P1;durP2;ratioP2;P2;SDS_P1;SDS_P2;PMS_P1;PMS_P2;Temp;Humidity;BMP_temperature;BMP_pressure;BME280_temperature;BME280_humidity;BME280_pressure;Samples;Min_cycle;Max_cycle;Signal;HPM_P1;HPM_P2
2023/01/19 00:01:51;;;;;;;;;;;;;;;;;;6270837;22;20225;-83
2023/01/19 00:04:17;;;;;;;;;;;;;;;;;;6266063;22;19922;-84
2023/01/19 00:06:43;;;;;;;;;;;;;;;;;;6325840;22;19914;-84
2023/01/19 00:09:09;;;;;;;;;;;;;;;;;;6323834;22;19953;-83
2023/01/19 00:11:35;;;;;;;;;;;;;;;;;;6327989;22;20296;-83
2023/01/19 00:14:01;;;;;;;;;;;;;;;;;;6324596;22;20019;-83
2023/01/19 00:16:27;;;;;;;;;;;;;;;;;;6296202;22;19946;-83
2023/01/19 00:18:54;;;;;;;;;;;;;;;;;;6296265;22;19918;-83
2023/01/19 00:21:20;;;;;;;;;;;;;;;;;;6323977;22;19980;-83
2023/01/19 00:23:46;;;;;;;;;;;;;;;;;;6324399;22;19961;-83
2023/01/19 00:26:12;;;;;;;;;;;;;;;;;;6294405;22;19919;-83
2023/01/19 00:28:38;;;;;;;;;;;;;;;;;;6322770;22;19922;-83
2023/01/19 00:31:04;;;;;;;;;;;;;;;;;;6319679;22;19915;-83
2023/01/19 00:33:30;;;;;;;;;;;;;;;;;;6295104;22;19915;-83
2023/01/19 00:35:56;;;;;;;;;;;;;;;;;;6270213;22;19918;-83
2023/01/19 00:38:22;;;;;;;;;;;;;;;;;;6269456;22;19925;-83
2023/01/19 00:40:48;;;;;;;;;;;;;;;;;;6269745;22;19997;-83
2023/01/19 00:43:14;;;;;;;;;;;;;;;;;;6317941;22;19922;-83
2023/01/19 00:45:40;;;;;;;;;;;;;;;;;;6294905;22;19942;-83
2023/01/19 00:48:06;;;;;;;;;;;;;;;;;;6294503;22;19919;-83
2023/01/19 00:50:32;;;;;;;;;;;;;;;;;;6325094;22;20039;-83
2023/01/19 00:52:59;;;;;;;;;;;;;;;;;;6296951;22;19919;-83
2023/01/19 00:55:26;;;;;;;;;;;;;;;;;;6291430;22;19918;-83
2023/01/19 00:57:52;;;;;;;;;;;;;;;;;;6267202;22;20325;-83
2023/01/19 01:00:18;;;;;;;;;;;;;;;;;;6295285;22;19923;-83
2023/01/19 01:02:44;;;;;;;;;;;;;;;;;;6267167;22;20438;-83
2023/01/19 01:05:10;;;;;;;;;;;;;;;;;;6294786;22;19918;-83
2023/01/19 01:07:40;;;;;;;;;;;;;;;;;;6270578;22;19918;-83
2023/01/19 01:10:07;;;;;;;;;;;;;;;;;;6289935;22;19918;-83
2023/01/19 01:12:33;;;;;;;;;;;;;;;;;;6295166;22;19926;-84
2023/01/19 01:15:02;;;;;;;;;;;;;;;;;;6270189;22;19914;-83
2023/01/19 01:17:28;;;;;;;;;;;;;;;;;;6291285;22;19929;-83
2023/01/19 01:19:54;;;;;;;;;;;;;;;;;;6263806;22;19915;-83
2023/01/19 01:22:20;;;;;;;;;;;;;;;;;;6289837;22;19918;-83
2023/01/19 01:24:46;;;;;;;;;;;;;;;;;;6295370;22;19926;-83
2023/01/19 01:27:12;;;;;;;;;;;;;;;;;;6317463;22;20188;-83
2023/01/19 01:29:40;;;;;;;;;;;;;;;;;;6322031;22;19928;-83
2023/01/19 01:32:05;;;;;;;;;;;;;;;;;;6265781;22;19919;-83
2023/01/19 01:34:31;;;;;;;;;;;;;;;;;;6292572;22;19940;-83
2023/01/19 01:36:57;;;;;;;;;;;;;;;;;;6293512;22;19922;-83
2023/01/19 01:39:23;;;;;;;;;;;;;;;;;;6289932;22;19994;-83
2023/01/19 01:41:49;;;;;;;;;;;;;;;;;;6321380;22;19919;-83
2023/01/19 01:44:15;;;;;;;;;;;;;;;;;;6284621;22;20232;-83
2023/01/19 01:46:41;;;;;;;;;;;;;;;;;;6323626;22;20219;-83
2023/01/19 01:49:07;;;;;;;;;;;;;;;;;;6321332;22;20256;-83
2023/01/19 01:51:33;;;;;;;;;;;;;;;;;;6271460;22;19918;-83
2023/01/19 01:53:59;;;;;;;;;;;;;;;;;;6297793;22;19998;-83
2023/01/19 01:56:25;;;;;;;;;;;;;;;;;;6321883;22;20247;-83
2023/01/19 01:58:51;;;;;;;;;;;;;;;;;;6321943;22;19918;-83
2023/01/19 02:04:02;;;;;;;;;;;;;;;;;;6289906;22;19926;-83
2023/01/19 02:06:28;;;;;;;;;;;;;;;;;;6319959;22;19975;-83
2023/01/19 02:14:23;;;;;;;;;;;;;;;;;;6318567;22;20345;-83
2023/01/19 02:16:49;;;;;;;;;;;;;;;;;;6320223;22;19918;-83
2023/01/19 02:19:15;;;;;;;;;;;;;;;;;;6316810;22;19968;-83
2023/01/19 02:21:41;;;;;;;;;;;;;;;;;;6288507;22;19914;-83
2023/01/19 02:24:07;;;;;;;;;;;;;;;;;;6264074;22;19926;-83
2023/01/19 02:26:33;;;;;;;;;;;;;;;;;;6319616;22;19924;-83
2023/01/19 02:28:59;;;;;;;;;;;;;;;;;;6318242;22;19962;-83
2023/01/19 02:31:28;;;;;;;;;;;;;;;;;;6266863;22;19922;-83
2023/01/19 02:33:54;;;;;;;;;;;;;;;;;;6295925;22;19985;-83
2023/01/19 02:36:20;;;;;;;;;;;;;;;;;;6266767;22;20295;-83
2023/01/19 02:38:46;;;;;;;;;;;;;;;;;;6295178;22;20330;-83
2023/01/19 02:41:12;;;;;;;;;;;;;;;;;;6291046;22;19922;-83
2023/01/19 02:43:38;;;;;;;;;;;;;;;;;;6267435;22;19979;-83
2023/01/19 02:46:04;;;;;;;;;;;;;;;;;;6319601;22;20239;-83
2023/01/19 02:48:30;;;;;;;;;;;;;;;;;;6323954;22;19918;-83
2023/01/19 02:50:56;;;;;;;;;;;;;;;;;;6296942;22;19919;-83
2023/01/19 02:53:22;;;;;;;;;;;;;;;;;;6322765;22;19969;-83
2023/01/19 02:55:48;;;;;;;;;;;;;;;;;;6324751;22;20343;-84
2023/01/19 02:58:14;;;;;;;;;;;;;;;;;;6270330;22;19914;-83
2023/01/19 03:00:39;;;;;;;;;;;;;;;;;;6297421;22;19925;-84
2023/01/19 03:03:05;;;;;;;;;;;;;;;;;;6265989;22;19934;-83
2023/01/19 03:05:32;;;;;;;;;;;;;;;;;;6322309;22;19990;-83
2023/01/19 03:07:58;;;;;;;;;;;;;;;;;;6296157;22;19918;-83
2023/01/19 03:10:24;;;;;;;;;;;;;;;;;;6321619;22;19975;-83
2023/01/19 03:12:50;;;;;;;;;;;;;;;;;;6325456;22;19922;-83
2023/01/19 03:15:16;;;;;;;;;;;;;;;;;;6321089;22;20228;-83
2023/01/19 03:17:43;;;;;;;;;;;;;;;;;;6268680;22;20008;-84
2023/01/19 03:20:09;;;;;;;;;;;;;;;;;;6291575;22;20009;-84
2023/01/19 03:22:35;;;;;;;;;;;;;;;;;;6291735;22;20012;-83
2023/01/19 03:25:01;;;;;;;;;;;;;;;;;;6290771;22;19926;-83
2023/01/19 03:27:27;;;;;;;;;;;;;;;;;;6292935;22;19950;-84
2023/01/19 03:29:53;;;;;;;;;;;;;;;;;;6271045;22;19919;-83
2023/01/19 03:32:20;;;;;;;;;;;;;;;;;;6291278;22;19922;-83
2023/01/19 03:34:46;;;;;;;;;;;;;;;;;;6297114;22;19918;-83
2023/01/19 03:37:12;;;;;;;;;;;;;;;;;;6292224;22;19937;-83
2023/01/19 03:39:38;;;;;;;;;;;;;;;;;;6297025;22;19922;-83
2023/01/19 03:42:04;;;;;;;;;;;;;;;;;;6292020;22;20346;-83
2023/01/19 03:44:30;;;;;;;;;;;;;;;;;;6294228;22;19930;-84
2023/01/19 03:46:56;;;;;;;;;;;;;;;;;;6294109;22;19918;-83
2023/01/19 03:49:22;;;;;;;;;;;;;;;;;;6322380;22;20236;-83
2023/01/19 03:51:47;;;;;;;;;;;;;;;;;;6296594;22;19919;-83
2023/01/19 03:54:13;;;;;;;;;;;;;;;;;;6321931;22;19918;-83
2023/01/19 03:56:39;;;;;;;;;;;;;;;;;;6324608;22;19929;-83
2023/01/19 03:59:06;;;;;;;;;;;;;;;;;;6293433;22;19919;-83
2023/01/19 04:01:32;;;;;;;;;;;;;;;;;;6294870;22;20356;-83
2023/01/19 04:03:58;;;;;;;;;;;;;;;;;;6296696;22;19930;-83
2023/01/19 04:06:24;;;;;;;;;;;;;;;;;;6266659;22;19915;-83
2023/01/19 04:08:50;;;;;;;;;;;;;;;;;;6296624;22;20304;-83
2023/01/19 04:11:16;;;;;;;;;;;;;;;;;;6265883;22;20340;-83
2023/01/19 04:13:42;;;;;;;;;;;;;;;;;;6269229;22;19950;-83
2023/01/19 04:16:08;;;;;;;;;;;;;;;;;;6294514;22;19923;-83
2023/01/19 04:18:34;;;;;;;;;;;;;;;;;;6294314;22;19918;-83
2023/01/19 04:21:00;;;;;;;;;;;;;;;;;;6293468;22;20032;-83
2023/01/19 04:23:26;;;;;;;;;;;;;;;;;;6322763;22;19946;-83
2023/01/19 04:25:52;;;;;;;;;;;;;;;;;;6322427;22;20336;-83
2023/01/19 04:28:18;;;;;;;;;;;;;;;;;;6318647;22;19923;-83
2023/01/19 04:30:44;;;;;;;;;;;;;;;;;;6319957;22;19914;-83
2023/01/19 04:33:10;;;;;;;;;;;;;;;;;;6318802;22;19918;-84
2023/01/19 04:35:36;;;;;;;;;;;;;;;;;;6294194;22;20369;-83
2023/01/19 04:38:02;;;;;;;;;;;;;;;;;;6288500;22;19953;-83
2023/01/19 04:40:28;;;;;;;;;;;;;;;;;;6291514;22;19957;-83
2023/01/19 04:42:54;;;;;;;;;;;;;;;;;;6318475;22;20328;-83
2023/01/19 04:45:20;;;;;;;;;;;;;;;;;;6288973;22;19992;-83
2023/01/19 04:47:46;;;;;;;;;;;;;;;;;;6263343;22;20017;-83
2023/01/19 04:50:12;;;;;;;;;;;;;;;;;;6289698;22;19918;-83
2023/01/19 04:52:38;;;;;;;;;;;;;;;;;;6322042;22;19967;-83
2023/01/19 04:55:04;;;;;;;;;;;;;;;;;;6320278;22;20359;-83
2023/01/19 04:57:30;;;;;;;;;;;;;;;;;;6294958;22;20221;-83
2023/01/19 04:59:56;;;;;;;;;;;;;;;;;;6270049;22;19918;-83
2023/01/19 05:02:22;;;;;;;;;;;;;;;;;;6290807;22;19989;-83
2023/01/19 05:04:48;;;;;;;;;;;;;;;;;;6291447;22;20476;-83
2023/01/19 05:07:13;;;;;;;;;;;;;;;;;;6315574;22;19985;-84
2023/01/19 05:09:39;;;;;;;;;;;;;;;;;;6289768;22;20358;-83
2023/01/19 05:12:05;;;;;;;;;;;;;;;;;;6290729;22;19941;-84
2023/01/19 05:14:31;;;;;;;;;;;;;;;;;;6318901;22;19919;-84
2023/01/19 05:16:58;;;;;;;;;;;;;;;;;;6294370;22;19930;-84
2023/01/19 05:19:24;;;;;;;;;;;;;;;;;;6322951;22;19918;-84
2023/01/19 05:21:50;;;;;;;;;;;;;;;;;;6296178;22;19957;-84
2023/01/19 05:24:17;;;;;;;;;;;;;;;;;;6290919;22;19958;-84
2023/01/19 05:26:43;;;;;;;;;;;;;;;;;;6293807;22;19914;-84
2023/01/19 05:29:09;;;;;;;;;;;;;;;;;;6319550;22;19937;-84
2023/01/19 05:31:36;;;;;;;;;;;;;;;;;;6292663;22;19993;-84
2023/01/19 05:34:01;;;;;;;;;;;;;;;;;;6316674;22;20013;-84
2023/01/19 05:36:27;;;;;;;;;;;;;;;;;;6297538;22;19976;-84
2023/01/19 05:38:53;;;;;;;;;;;;;;;;;;6293715;22;20324;-84
2023/01/19 05:41:19;;;;;;;;;;;;;;;;;;6320198;22;19919;-84
2023/01/19 05:43:45;;;;;;;;;;;;;;;;;;6293391;22;19926;-84
2023/01/19 05:46:11;;;;;;;;;;;;;;;;;;6320142;22;20254;-84
2023/01/19 05:48:38;;;;;;;;;;;;;;;;;;6296796;22;19925;-84
2023/01/19 05:51:04;;;;;;;;;;;;;;;;;;6293649;22;20023;-84
2023/01/19 05:53:30;;;;;;;;;;;;;;;;;;6327896;22;19918;-84
2023/01/19 05:55:55;;;;;;;;;;;;;;;;;;6327396;22;20447;-84
2023/01/19 05:58:21;;;;;;;;;;;;;;;;;;6268347;22;20017;-84
2023/01/19 06:00:47;;;;;;;;;;;;;;;;;;6291129;22;20388;-84
2023/01/19 06:03:13;;;;;;;;;;;;;;;;;;6288313;22;19922;-84
2023/01/19 06:05:39;;;;;;;;;;;;;;;;;;6321105;22;19922;-84
2023/01/19 06:08:05;;;;;;;;;;;;;;;;;;6290135;22;19954;-84
2023/01/19 06:10:31;;;;;;;;;;;;;;;;;;6292286;22;20768;-84
2023/01/19 06:12:57;;;;;;;;;;;;;;;;;;6292956;22;19923;-84
2023/01/19 06:15:23;;;;;;;;;;;;;;;;;;6288022;22;20346;-84
2023/01/19 06:17:49;;;;;;;;;;;;;;;;;;6291083;22;19918;-83
2023/01/19 06:20:15;;;;;;;;;;;;;;;;;;6292542;22;20216;-84
2023/01/19 06:22:41;;;;;;;;;;;;;;;;;;6289117;22;20005;-84
2023/01/19 06:25:07;;;;;;;;;;;;;;;;;;6291191;22;19971;-84
2023/01/19 06:27:33;;;;;;;;;;;;;;;;;;6291348;22;19918;-84
2023/01/19 06:29:59;;;;;;;;;;;;;;;;;;6293322;22;19921;-84
2023/01/19 06:32:29;;;;;;;;;;;;;;;;;;6292369;22;20358;-84
2023/01/19 06:34:55;;;;;;;;;;;;;;;;;;6319826;22;19937;-83
2023/01/19 06:37:21;;;;;;;;;;;;;;;;;;6292256;22;20633;-84
2023/01/19 06:39:47;;;;;;;;;;;;;;;;;;6322016;22;20059;-84
2023/01/19 06:42:13;;;;;;;;;;;;;;;;;;6319808;22;19918;-83
2023/01/19 06:44:46;;;;;;;;;;;;;;;;;;6267259;22;19998;-84
2023/01/19 06:47:14;;;;;;;;;;;;;;;;;;6316119;22;20277;-83
2023/01/19 06:49:40;;;;;;;;;;;;;;;;;;6292294;22;19919;-83
2023/01/19 06:52:07;;;;;;;;;;;;;;;;;;6317009;22;19994;-84
2023/01/19 06:54:33;;;;;;;;;;;;;;;;;;6319326;22;19918;-83
2023/01/19 06:56:59;;;;;;;;;;;;;;;;;;6293458;22;19922;-83
2023/01/19 06:59:24;;;;;;;;;;;;;;;;;;6289851;22;19993;-84
2023/01/19 07:01:50;;;;;;;;;;;;;;;;;;6321150;22;20244;-84
2023/01/19 07:04:16;;;;;;;;;;;;;;;;;;6264376;22;19929;-84
2023/01/19 07:06:42;;;;;;;;;;;;;;;;;;6288811;22;19919;-84
2023/01/19 07:09:12;;;;;;;;;;;;;;;;;;6283156;22;20394;-84
2023/01/19 07:11:37;;;;;;;;;;;;;;;;;;6265536;22;19923;-84
2023/01/19 07:14:04;;;;;;;;;;;;;;;;;;6291527;22;19937;-84
2023/01/19 07:16:30;;;;;;;;;;;;;;;;;;6321743;22;20676;-84
2023/01/19 07:18:56;;;;;;;;;;;;;;;;;;6266373;22;19918;-84
2023/01/19 07:21:22;;;;;;;;;;;;;;;;;;6321237;22;19926;-84
2023/01/19 07:23:48;;;;;;;;;;;;;;;;;;6269824;22;20037;-83
2023/01/19 07:26:17;;;;;;;;;;;;;;;;;;6284512;22;20243;-84
2023/01/19 07:28:43;;;;;;;;;;;;;;;;;;6291330;22;19944;-84
2023/01/19 07:31:09;;;;;;;;;;;;;;;;;;6257226;22;19997;-84
2023/01/19 07:33:35;;;;;;;;;;;;;;;;;;6315855;22;20809;-84
2023/01/19 07:36:01;;;;;;;;;;;;;;;;;;6314384;22;20325;-84
2023/01/19 07:38:27;;;;;;;;;;;;;;;;;;6290746;22;19989;-84
2023/01/19 07:40:53;;;;;;;;;;;;;;;;;;6263953;22;20377;-84
2023/01/19 07:43:19;;;;;;;;;;;;;;;;;;6259163;22;20087;-84
2023/01/19 07:45:45;;;;;;;;;;;;;;;;;;6267199;22;19981;-84
2023/01/19 07:48:11;;;;;;;;;;;;;;;;;;6288271;22;20001;-84
2023/01/19 07:50:37;;;;;;;;;;;;;;;;;;6267223;22;19922;-84
2023/01/19 07:53:03;;;;;;;;;;;;;;;;;;6289351;22;19925;-84
2023/01/19 07:55:29;;;;;;;;;;;;;;;;;;6262394;22;19918;-84
2023/01/19 07:57:55;;;;;;;;;;;;;;;;;;6289580;22;20250;-84
2023/01/19 08:00:23;;;;;;;;;;;;;;;;;;6263457;22;20250;-84
2023/01/19 08:02:50;;;;;;;;;;;;;;;;;;6284949;22;20318;-83
2023/01/19 08:08:45;;;;;;;;;;;;;;;;;;6300614;22;19944;-83
2023/01/19 08:14:36;;;;;;;;;;;;;;;;;;6291603;22;19919;-84
2023/01/19 08:17:20;;;;;;;;;;;;;;;;;;6230013;22;19924;-84
2023/01/19 08:35:43;;;;;;;;;;;;;;;;;;;;;
2023/01/19 09:22:44;;;;;;;;;;;;;;;;;;;;;
2023/01/19 09:42:58;;;;;;;;;;;;;;;;;;6319506;22;19923;-84
2023/01/19 09:45:24;;;;;;;;;;;;;;;;;;6270900;22;19949;-84
2023/01/19 09:47:50;;;;;;;;;;;;;;;;;;6297583;22;19918;-84
2023/01/19 09:50:16;;;;;;;;;;;;;;;;;;6298174;22;19972;-85
2023/01/19 09:52:42;;;;;;;;;;;;;;;;;;6299929;22;20339;-85
2023/01/19 09:55:08;;;;;;;;;;;;;;;;;;6273186;22;20267;-84
2023/01/19 09:57:34;;;;;;;;;;;;;;;;;;6297307;22;19915;-84
2023/01/19 10:00:03;;;;;;;;;;;;;;;;;;6300074;22;20356;-84
2023/01/19 10:02:29;;;;;;;;;;;;;;;;;;6299761;22;19914;-84
2023/01/19 10:04:55;;;;;;;;;;;;;;;;;;6299813;22;19915;-84
2023/01/19 10:07:21;;;;;;;;;;;;;;;;;;6269159;22;20331;-85
2023/01/19 10:09:47;;;;;;;;;;;;;;;;;;6273031;22;19921;-84
2023/01/19 10:12:15;;;;;;;;;;;;;;;;;;6294617;22;19938;-84
2023/01/19 10:14:41;;;;;;;;;;;;;;;;;;6296125;22;19919;-85
2023/01/19 10:17:07;;;;;;;;;;;;;;;;;;6294909;22;19950;-85
2023/01/19 10:19:35;;;;;;;;;;;;;;;;;;6272569;22;19946;-86
2023/01/19 10:22:02;;;;;;;;;;;;;;;;;;6272232;22;19918;-85
2023/01/19 10:24:28;;;;;;;;;;;;;;;;;;6294546;22;20001;-85
2023/01/19 10:26:54;;;;;;;;;;;;;;;;;;6293443;22;19922;-85
2023/01/19 10:29:20;;;;;;;;;;;;;;;;;;6294964;22;19930;-86
2023/01/19 10:31:46;;;;;;;;;;;;;;;;;;6290632;22;19961;-86
2023/01/19 10:34:17;;;;;;;;;;;;;;;;;;6292174;22;19919;-85
2023/01/19 10:36:43;;;;;;;;;;;;;;;;;;6271604;22;20323;-85
2023/01/19 10:39:09;;;;;;;;;;;;;;;;;;6321745;22;20053;-85
2023/01/19 10:41:35;;;;;;;;;;;;;;;;;;6297473;22;20251;-86
2023/01/19 10:44:01;;;;;;;;;;;;;;;;;;6268244;22;19918;-85
2023/01/19 10:46:27;;;;;;;;;;;;;;;;;;6293536;22;19990;-85
2023/01/19 10:48:53;;;;;;;;;;;;;;;;;;6267381;22;20057;-85
2023/01/19 10:51:19;;;;;;;;;;;;;;;;;;6294331;22;19929;-86
2023/01/19 10:53:45;;;;;;;;;;;;;;;;;;6298501;22;20343;-86
2023/01/19 10:56:11;;;;;;;;;;;;;;;;;;6291792;22;19989;-86
2023/01/19 10:58:38;;;;;;;;;;;;;;;;;;6294341;22;19919;-85
2023/01/19 11:01:04;;;;;;;;;;;;;;;;;;6292955;22;19918;-86
2023/01/19 11:03:30;;;;;;;;;;;;;;;;;;6324485;22;20014;-85
2023/01/19 11:09:48;;;;;;;;;;;;;;;;;;;;;
2023/01/19 11:12:32;;;;;;;;;;;;;;;;;;6210295;23;20383;-85
2023/01/19 11:14:58;;;;;;;;;;;;;;;;;;6202099;23;19919;-85
2023/01/19 11:17:24;;;;;;;;;;;;;;;;;;6241618;22;19923;-85
2023/01/19 11:19:50;;;;;;;;;;;;;;;;;;6303061;22;19922;-85
2023/01/19 11:22:20;;;;;;;;;;;;;;;;;;6297427;22;20335;-85
2023/01/19 11:24:46;;;;;;;;;;;;;;;;;;6302398;22;19929;-85
2023/01/19 11:27:12;;;;;;;;;;;;;;;;;;6274259;22;19914;-85
2023/01/19 11:29:38;;;;;;;;;;;;;;;;;;6300605;22;19926;-84
2023/01/19 11:32:04;;;;;;;;;;;;;;;;;;6274752;22;19963;-85
2023/01/19 11:34:30;;;;;;;;;;;;;;;;;;6275824;22;19922;-85
2023/01/19 11:36:56;;;;;;;;;;;;;;;;;;6304639;22;19922;-85
2023/01/19 11:39:23;;;;;;;;;;;;;;;;;;6297364;22;19928;-84
2023/01/19 11:41:49;;;;;;;;;;;;;;;;;;6274079;22;19922;-85
2023/01/19 11:44:15;;;;;;;;;;;;;;;;;;6300885;22;20213;-85
2023/01/19 11:46:41;;;;;;;;;;;;;;;;;;6276381;22;19922;-85
2023/01/19 11:49:06;;;;;;;;;;;;;;;;;;6300757;22;20408;-85
2023/01/19 11:51:32;;;;;;;;;;;;;;;;;;6303673;22;19918;-85
2023/01/19 11:53:58;;;;;;;;;;;;;;;;;;6275299;22;19946;-85
2023/01/19 11:56:24;;;;;;;;;;;;;;;;;;6275053;22;19964;-85
2023/01/19 11:58:50;;;;;;;;;;;;;;;;;;6277130;22;19925;-85
2023/01/19 12:01:19;;;;;;;;;;;;;;;;;;6295882;22;19919;-85
2023/01/19 12:03:45;;;;;;;;;;;;;;;;;;6300733;22;19997;-85
2023/01/19 12:06:11;;;;;;;;;;;;;;;;;;6275823;22;20374;-85
2023/01/19 12:08:37;;;;;;;;;;;;;;;;;;6276182;22;19918;-85
2023/01/19 12:11:03;;;;;;;;;;;;;;;;;;6275548;22;19941;-85
2023/01/19 12:13:30;;;;;;;;;;;;;;;;;;6275951;22;19915;-85
2023/01/19 12:15:56;;;;;;;;;;;;;;;;;;6301450;22;19937;-85
2023/01/19 12:18:22;;;;;;;;;;;;;;;;;;6273470;22;19918;-84
2023/01/19 12:20:48;;;;;;;;;;;;;;;;;;6276663;22;19967;-85
2023/01/19 12:23:14;;;;;;;;;;;;;;;;;;6326896;22;20028;-85
2023/01/19 12:25:41;;;;;;;;;;;;;;;;;;6274235;22;20383;-85
2023/01/19 12:28:07;;;;;;;;;;;;;;;;;;6273803;22;19985;-85
2023/01/19 12:30:33;;;;;;;;;;;;;;;;;;6302086;22;19969;-84
2023/01/19 12:32:59;;;;;;;;;;;;;;;;;;6301078;22;20050;-85
2023/01/19 12:35:25;;;;;;;;;;;;;;;;;;6298327;22;19942;-85
2023/01/19 12:37:51;;;;;;;;;;;;;;;;;;6301194;22;19955;-85
2023/01/19 12:40:17;;;;;;;;;;;;;;;;;;6298427;22;19952;-84
2023/01/19 12:42:43;;;;;;;;;;;;;;;;;;6295270;22;19922;-84
2023/01/19 12:45:09;;;;;;;;;;;;;;;;;;6293337;22;19919;-84
2023/01/19 12:47:35;;;;;;;;;;;;;;;;;;6270142;22;20233;-85
2023/01/19 12:50:04;;;;;;;;;;;;;;;;;;6294736;22;19961;-84
2023/01/19 12:52:32;;;;;;;;;;;;;;;;;;6297278;22;19973;-85
2023/01/19 12:54:58;;;;;;;;;;;;;;;;;;6298872;22;20217;-84
2023/01/19 12:57:24;;;;;;;;;;;;;;;;;;6294602;22;19967;-84
2023/01/19 12:59:50;;;;;;;;;;;;;;;;;;6269218;22;19926;-84
2023/01/19 13:02:16;;;;;;;;;;;;;;;;;;6295438;22;19919;-84
2023/01/19 13:04:42;;;;;;;;;;;;;;;;;;6290141;22;19934;-84
2023/01/19 13:07:09;;;;;;;;;;;;;;;;;;6293407;22;19982;-85
2023/01/19 13:09:35;;;;;;;;;;;;;;;;;;6297865;22;19919;-84
2023/01/19 13:12:01;;;;;;;;;;;;;;;;;;6295606;22;19919;-85
2023/01/19 13:14:27;;;;;;;;;;;;;;;;;;6295802;22;19963;-84
2023/01/19 13:16:53;;;;;;;;;;;;;;;;;;6297149;22;19968;-84
2023/01/19 13:19:19;;;;;;;;;;;;;;;;;;6293799;22;19926;-84
2023/01/19 13:21:45;;;;;;;;;;;;;;;;;;6295030;22;20327;-84
2023/01/19 13:24:13;;;;;;;;;;;;;;;;;;6294945;22;19923;-84
2023/01/19 13:26:39;;;;;;;;;;;;;;;;;;6295872;22;19919;-84
2023/01/19 13:29:05;;;;;;;;;;;;;;;;;;6264136;22;20255;-85
2023/01/19 13:31:31;;;;;;;;;;;;;;;;;;6289587;22;19986;-85
2023/01/19 13:33:57;;;;;;;;;;;;;;;;;;6289730;22;20167;-85
2023/01/19 13:36:25;;;;;;;;;;;;;;;;;;6284223;22;19973;-85
2023/01/19 13:38:51;;;;;;;;;;;;;;;;;;6290460;22;19923;-85
2023/01/19 13:41:17;;;;;;;;;;;;;;;;;;6288846;22;19919;-85
2023/01/19 13:43:43;;;;;;;;;;;;;;;;;;6288343;22;19949;-85
2023/01/19 13:46:09;;;;;;;;;;;;;;;;;;6288660;22;19918;-85
2023/01/19 13:48:34;;;;;;;;;;;;;;;;;;6261229;22;19939;-85
2023/01/19 13:51:03;;;;;;;;;;;;;;;;;;6290784;22;19919;-85
2023/01/19 13:53:29;;;;;;;;;;;;;;;;;;6294256;22;20270;-85
2023/01/19 13:55:55;;;;;;;;;;;;;;;;;;6291699;22;19918;-85
2023/01/19 13:58:21;;;;;;;;;;;;;;;;;;6286146;22;20250;-85
2023/01/19 14:00:47;;;;;;;;;;;;;;;;;;6294332;22;19957;-85
2023/01/19 14:03:14;;;;;;;;;;;;;;;;;;6261128;22;19930;-85
2023/01/19 14:05:40;;;;;;;;;;;;;;;;;;6294646;22;19985;-85
2023/01/19 14:08:06;;;;;;;;;;;;;;;;;;6263233;22;19999;-85
2023/01/19 14:10:32;;;;;;;;;;;;;;;;;;6290310;22;19926;-85
2023/01/19 14:12:58;;;;;;;;;;;;;;;;;;6293684;22;19915;-85
2023/01/19 14:15:26;;;;;;;;;;;;;;;;;;6304563;22;20134;-85
2023/01/19 14:17:52;;;;;;;;;;;;;;;;;;6295882;22;19931;-85
2023/01/19 14:20:18;;;;;;;;;;;;;;;;;;6291019;22;19914;-85
2023/01/19 14:22:44;;;;;;;;;;;;;;;;;;6292962;22;20030;-85
2023/01/19 14:25:10;;;;;;;;;;;;;;;;;;6287600;22;19927;-85
2023/01/19 14:27:36;;;;;;;;;;;;;;;;;;6295745;22;19919;-85
2023/01/19 14:30:02;;;;;;;;;;;;;;;;;;6265575;22;19923;-85
2023/01/19 14:32:28;;;;;;;;;;;;;;;;;;6288983;22;19919;-85
2023/01/19 14:35:02;;;;;;;;;;;;;;;;;;6291226;22;19919;-85
2023/01/19 14:37:31;;;;;;;;;;;;;;;;;;6288039;22;19919;-85
2023/01/19 14:39:57;;;;;;;;;;;;;;;;;;6289987;22;19941;-85
2023/01/19 14:42:23;;;;;;;;;;;;;;;;;;6294892;22;19927;-85
2023/01/19 14:44:49;;;;;;;;;;;;;;;;;;6268437;22;19923;-85
2023/01/19 14:47:15;;;;;;;;;;;;;;;;;;6292577;22;19914;-85
2023/01/19 14:49:41;;;;;;;;;;;;;;;;;;6297400;22;19914;-85
2023/01/19 14:52:07;;;;;;;;;;;;;;;;;;6294128;22;19925;-85
2023/01/19 14:54:33;;;;;;;;;;;;;;;;;;6270900;22;19915;-85
2023/01/19 14:56:59;;;;;;;;;;;;;;;;;;6270769;22;19925;-85
2023/01/19 14:59:25;;;;;;;;;;;;;;;;;;6320307;22;19915;-85
2023/01/19 15:01:51;;;;;;;;;;;;;;;;;;6267367;22;19918;-85
2023/01/19 15:04:17;;;;;;;;;;;;;;;;;;6264482;22;19922;-84
2023/01/19 15:06:44;;;;;;;;;;;;;;;;;;6297492;22;19918;-86
2023/01/19 15:09:10;;;;;;;;;;;;;;;;;;6295215;22;19919;-86
2023/01/19 15:11:36;;;;;;;;;;;;;;;;;;6295901;22;19921;-85
2023/01/19 15:14:02;;;;;;;;;;;;;;;;;;6268644;22;19994;-85
2023/01/19 15:16:28;;;;;;;;;;;;;;;;;;6268138;22;19914;-85
2023/01/19 15:18:54;;;;;;;;;;;;;;;;;;6270567;22;20311;-84
2023/01/19 15:21:25;;;;;;;;;;;;;;;;;;6291069;22;19918;-85
2023/01/19 15:23:51;;;;;;;;;;;;;;;;;;6294248;22;19922;-84
2023/01/19 15:26:17;;;;;;;;;;;;;;;;;;6262709;22;20338;-84
2023/01/19 15:28:43;;;;;;;;;;;;;;;;;;6294288;22;19989;-84
2023/01/19 15:31:09;;;;;;;;;;;;;;;;;;6286915;22;19960;-85
2023/01/19 15:33:35;;;;;;;;;;;;;;;;;;6291541;22;19942;-84
2023/01/19 15:45:35;;;;;;;;;;;;;;;;;;;;;
2023/01/19 15:55:16;;;;;;;;;;;;;;;;;;;;;
2023/01/19 15:58:02;;;;;;;;;;;;;;;;;;;;;
2023/01/19 16:07:14;;;;;;;;;;;;;;;;;;6084218;23;19964;-84
2023/01/19 16:16:23;;;;;;;;;;;;;;;;;;5955594;24;19921;-85
2023/01/19 16:35:02;;;;;;;;;;;;;;;;;;6033756;23;19952;-84
2023/01/19 16:47:19;;;;;;;;;;;;;;;;;;;;;
2023/01/19 17:10:02;;;;;;;;;;;;;;;;;;6263835;22;19926;-83
2023/01/19 17:12:31;;;;;;;;;;;;;;;;;;6238075;22;19923;-83
2023/01/19 17:15:05;;;;;;;;;;;;;;;;;;6237641;22;19918;-83
2023/01/19 17:17:38;;;;;;;;;;;;;;;;;;6235098;22;19940;-83
2023/01/19 17:20:04;;;;;;;;;;;;;;;;;;6231865;22;19919;-83
2023/01/19 17:22:33;;;;;;;;;;;;;;;;;;6268727;22;20342;-83
2023/01/19 17:25:05;;;;;;;;;;;;;;;;;;6265521;22;20323;-83
2023/01/19 17:27:43;;;;;;;;;;;;;;;;;;6262641;22;20386;-83
2023/01/19 17:30:09;;;;;;;;;;;;;;;;;;6266502;22;19918;-83
2023/01/19 17:32:40;;;;;;;;;;;;;;;;;;6267739;22;19933;-83
2023/01/19 17:35:09;;;;;;;;;;;;;;;;;;6266100;22;19999;-85
2023/01/19 17:38:03;;;;;;;;;;;;;;;;;;;;;
2023/01/19 17:41:07;;;;;;;;;;;;;;;;;;6255082;22;19926;-83
2023/01/19 17:43:42;;;;;;;;;;;;;;;;;;6256789;22;19930;-84
2023/01/19 17:46:44;;;;;;;;;;;;;;;;;;6248704;22;19934;-84
2023/01/19 18:11:14;;;;;;;;;;;;;;;;;;6025021;23;20090;-83
2023/01/19 18:14:10;;;;;;;;;;;;;;;;;;5963885;23;20026;-84
2023/01/19 18:25:43;;;;;;;;;;;;;;;;;;6122889;23;19967;-85
2023/01/19 18:28:32;;;;;;;;;;;;;;;;;;6123480;23;19916;-84
2023/01/19 18:56:20;;;;;;;;;;;;;;;;;;6173639;22;19937;-83
2023/01/19 18:58:59;;;;;;;;;;;;;;;;;;;;;
2023/01/19 19:02:00;;;;;;;;;;;;;;;;;;6299059;22;19965;-82
2023/01/19 19:04:44;;;;;;;;;;;;;;;;;;6267261;22;20097;-83
2023/01/19 19:10:01;;;;;;;;;;;;;;;;;;6224597;22;20413;-82
2023/01/19 19:15:26;;;;;;;;;;;;;;;;;;6227938;22;19958;-82
2023/01/19 19:18:02;;;;;;;;;;;;;;;;;;;;;
2023/01/19 19:20:30;;;;;;;;;;;;;;;;;;6226800;22;19919;-82
2023/01/19 19:22:56;;;;;;;;;;;;;;;;;;6200899;22;19955;-82
2023/01/19 19:25:28;;;;;;;;;;;;;;;;;;6199655;22;19923;-82
2023/01/19 19:27:54;;;;;;;;;;;;;;;;;;6202435;22;19919;-82
2023/01/19 19:30:20;;;;;;;;;;;;;;;;;;6229630;22;19918;-82
2023/01/19 19:32:46;;;;;;;;;;;;;;;;;;6232575;22;19927;-82
2023/01/19 19:35:19;;;;;;;;;;;;;;;;;;6228958;22;19977;-82
2023/01/19 19:37:46;;;;;;;;;;;;;;;;;;6232108;22;19940;-82
2023/01/19 19:40:12;;;;;;;;;;;;;;;;;;6231933;22;19918;-82
2023/01/19 19:42:38;;;;;;;;;;;;;;;;;;6259163;22;19998;-82
2023/01/19 19:45:07;;;;;;;;;;;;;;;;;;6232810;22;19957;-82
2023/01/19 19:47:36;;;;;;;;;;;;;;;;;;6231933;22;20304;-82
2023/01/19 19:50:02;;;;;;;;;;;;;;;;;;6231027;22;20012;-82
2023/01/19 19:55:31;;;;;;;;;;;;;;;;;;6214433;22;19980;-82
2023/01/19 19:57:57;;;;;;;;;;;;;;;;;;6234915;22;20739;-82
2023/01/19 20:00:23;;;;;;;;;;;;;;;;;;6237574;22;19915;-82
2023/01/19 20:02:49;;;;;;;;;;;;;;;;;;6234449;22;20228;-83
2023/01/19 20:05:15;;;;;;;;;;;;;;;;;;6260935;22;20304;-82
2023/01/19 20:07:48;;;;;;;;;;;;;;;;;;6238790;22;19925;-82
2023/01/19 20:10:14;;;;;;;;;;;;;;;;;;6261798;22;20335;-82
2023/01/19 20:12:42;;;;;;;;;;;;;;;;;;6262886;22;19919;-82
2023/01/19 20:15:11;;;;;;;;;;;;;;;;;;6236697;22;20243;-82
2023/01/19 20:20:50;;;;;;;;;;;;;;;;;;6238407;22;20533;-82
2023/01/19 20:23:16;;;;;;;;;;;;;;;;;;6235455;22;20030;-82
2023/01/19 20:25:42;;;;;;;;;;;;;;;;;;6238181;22;19922;-82
2023/01/19 20:28:11;;;;;;;;;;;;;;;;;;6261653;22;19998;-83
2023/01/19 20:30:56;;;;;;;;;;;;;;;;;;;;;
2023/01/19 20:33:53;;;;;;;;;;;;;;;;;;6258373;22;20461;-84
2023/01/19 20:36:50;;;;;;;;;;;;;;;;;;6195453;22;19919;-84
2023/01/19 20:40:06;;;;;;;;;;;;;;;;;;6178061;23;19920;-84
2023/01/19 20:45:54;;;;;;;;;;;;;;;;;;6022032;23;19933;-84
2023/01/19 20:48:52;;;;;;;;;;;;;;;;;;;;;
2023/01/19 21:00:44;;;;;;;;;;;;;;;;;;6059532;23;20034;-84
2023/01/19 21:03:37;;;;;;;;;;;;;;;;;;6049353;23;20187;-84
2023/01/19 21:06:11;;;;;;;;;;;;;;;;;;6055118;23;19921;-84
2023/01/19 21:08:53;;;;;;;;;;;;;;;;;;;;;
2023/01/19 21:11:30;;;;;;;;;;;;;;;;;;6057675;23;19917;-83